Time;durP1;ratioP1;P1;durP2;ratioP2;P2;SDS_P1;SDS_P2;PMS_P1;PMS_P2;Temp;Humidity;BMP_temperature;BMP_pressure;BME280_temperature;BME280_humidity;BME280_pressure;Samples;Min_cycle;Max_cycle;Signal;HPM_P1;HPM_P2
2023/05/09 00:01:30;;;;;;;12.48;7.75;;;22.70;49.40;;;;;;7568396;23;80763;-70
2023/05/09 00:04:31;;;;;;;11.77;7.50;;;22.70;49.10;;;;;;7568658;23;80971;-72
2023/05/09 00:07:32;;;;;;;11.57;7.30;;;22.70;49.00;;;;;;7567585;23;80076;-65
2023/05/09 00:10:32;;;;;;;11.48;7.05;;;22.60;49.00;;;;;;7568871;23;80654;-66
2023/05/09 00:13:33;;;;;;;12.77;7.50;;;22.60;49.10;;;;;;7568200;23;80848;-65
2023/05/09 00:16:35;;;;;;;13.63;7.80;;;22.70;49.00;;;;;;7568190;23;80282;-64
2023/05/09 00:19:37;;;;;;;10.05;7.05;;;22.70;49.00;;;;;;7568295;23;81276;-64
2023/05/09 00:22:37;;;;;;;10.90;7.43;;;22.60;49.00;;;;;;7567758;23;80963;-64
2023/05/09 00:25:38;;;;;;;10.60;6.82;;;22.70;48.70;;;;;;7567025;23;80705;-67
2023/05/09 00:28:38;;;;;;;10.95;6.47;;;22.70;48.80;;;;;;7568436;23;80772;-66
2023/05/09 00:31:39;;;;;;;13.15;7.47;;;22.60;48.80;;;;;;7568861;23;81034;-66
2023/05/09 00:34:39;;;;;;;12.90;7.85;;;22.60;49.20;;;;;;7567138;23;81165;-66
2023/05/09 00:37:40;;;;;;;11.18;6.88;;;22.60;48.50;;;;;;7565966;23;81692;-65
2023/05/09 00:40:41;;;;;;;11.98;7.30;;;22.60;48.60;;;;;;7563255;23;81180;-66
2023/05/09 00:43:41;;;;;;;14.25;7.72;;;22.60;48.40;;;;;;7538151;23;83165;-65
2023/05/09 00:46:42;;;;;;;16.35;7.07;;;22.60;48.40;;;;;;7539456;23;81704;-71
2023/05/09 00:49:42;;;;;;;14.48;8.38;;;22.60;48.20;;;;;;7538382;23;81257;-71
2023/05/09 00:52:43;;;;;;;12.93;7.72;;;22.60;48.20;;;;;;7565243;23;80775;-73
2023/05/09 00:55:43;;;;;;;15.15;8.48;;;22.60;48.10;;;;;;7567123;23;80347;-71
2023/05/09 00:58:44;;;;;;;14.48;7.35;;;22.60;48.10;;;;;;7566814;23;81026;-73
2023/05/09 01:01:44;;;;;;;11.50;6.97;;;22.60;47.80;;;;;;7566275;23;80790;-75
2023/05/09 01:04:45;;;;;;;12.30;6.97;;;22.60;48.30;;;;;;7540649;23;82827;-75
2023/05/09 01:07:45;;;;;;;10.50;6.32;;;22.60;47.60;;;;;;7541033;23;83121;-76
2023/05/09 01:10:46;;;;;;;11.25;7.47;;;22.60;47.80;;;;;;7550570;23;80307;-75
2023/05/09 01:13:47;;;;;;;11.77;7.15;;;22.60;47.70;;;;;;7605928;23;80106;-74
2023/05/09 01:16:47;;;;;;;12.73;7.60;;;22.60;47.60;;;;;;7579297;23;82816;-72
2023/05/09 01:19:48;;;;;;;11.32;7.22;;;22.60;47.50;;;;;;7579340;23;83122;-73
2023/05/09 01:22:48;;;;;;;10.32;6.60;;;22.60;47.70;;;;;;7604858;23;80520;-65
2023/05/09 01:25:52;;;;;;;11.57;7.47;;;22.50;47.60;;;;;;7603809;23;80533;-66
2023/05/09 01:28:52;;;;;;;10.48;6.88;;;22.50;47.30;;;;;;7605795;23;81275;-65
2023/05/09 01:31:53;;;;;;;12.45;7.18;;;22.50;47.40;;;;;;7579066;23;83122;-66
2023/05/09 01:34:53;;;;;;;11.10;6.95;;;22.50;47.10;;;;;;7605349;23;81630;-64
2023/05/09 01:37:54;;;;;;;10.65;6.53;;;22.50;47.10;;;;;;7605457;23;80138;-64
2023/05/09 01:40:54;;;;;;;9.38;6.50;;;22.50;47.00;;;;;;7605525;23;80262;-78
2023/05/09 01:43:55;;;;;;;11.20;6.70;;;22.50;46.80;;;;;;7579003;23;83398;-78
2023/05/09 01:46:56;;;;;;;11.82;7.13;;;22.50;47.00;;;;;;7606214;23;80543;-79
2023/05/09 01:49:57;;;;;;;11.07;7.07;;;22.50;46.80;;;;;;7600478;23;80897;-78
2023/05/09 01:52:57;;;;;;;12.13;7.43;;;22.50;47.60;;;;;;7604607;23;80677;-79
2023/05/09 01:55:58;;;;;;;11.32;7.22;;;22.50;46.70;;;;;;7579445;23;83665;-79
2023/05/09 01:58:58;;;;;;;10.80;6.45;;;22.50;46.70;;;;;;7578730;23;82223;-71
2023/05/09 02:01:59;;;;;;;9.23;5.97;;;22.50;46.70;;;;;;7553689;23;82838;-71
2023/05/09 02:05:00;;;;;;;11.45;6.28;;;22.50;46.80;;;;;;7604616;23;80388;-75
2023/05/09 02:08:00;;;;;;;9.52;6.75;;;22.50;46.80;;;;;;7580488;23;83725;-75
2023/05/09 02:11:01;;;;;;;11.43;6.60;;;22.50;46.50;;;;;;7604404;23;81035;-76
2023/05/09 02:14:01;;;;;;;8.77;6.20;;;22.50;46.60;;;;;;7603931;23;80355;-75
2023/05/09 02:17:08;;;;;;;8.77;5.93;;;22.50;46.60;;;;;;7579445;23;80405;-65
2023/05/09 02:20:09;;;;;;;10.18;6.38;;;22.50;46.50;;;;;;7604879;23;83525;-65
2023/05/09 02:23:09;;;;;;;8.98;6.25;;;22.50;46.60;;;;;;7603883;23;80501;-64
2023/05/09 02:26:10;;;;;;;9.60;6.25;;;22.50;46.60;;;;;;7605115;23;80337;-66
2023/05/09 02:29:10;;;;;;;8.15;5.57;;;22.60;46.70;;;;;;7578469;23;83327;-65
2023/05/09 02:32:11;;;;;;;9.68;6.30;;;22.50;46.40;;;;;;7578664;23;82852;-65
2023/05/09 02:35:11;;;;;;;8.88;6.13;;;22.50;46.50;;;;;;7578660;23;81389;-66
2023/05/09 02:38:13;;;;;;;11.80;6.43;;;22.60;46.00;;;;;;7604464;23;80787;-64
2023/05/09 02:41:14;;;;;;;9.10;6.13;;;22.50;46.10;;;;;;7605416;23;80482;-64
2023/05/09 02:44:14;;;;;;;8.20;5.78;;;22.50;46.00;;;;;;7578086;23;82379;-65
2023/05/09 02:47:15;;;;;;;10.32;6.65;;;22.50;46.20;;;;;;7604824;23;80393;-67
2023/05/09 02:50:16;;;;;;;10.88;6.82;;;22.50;45.80;;;;;;7604460;23;80383;-68
2023/05/09 02:53:17;;;;;;;9.25;6.70;;;22.50;45.90;;;;;;7578341;23;82498;-67
2023/05/09 02:56:17;;;;;;;9.65;6.55;;;22.50;45.80;;;;;;7576995;23;81995;-64
2023/05/09 02:59:19;;;;;;;10.18;6.43;;;22.50;45.80;;;;;;7605013;23;81139;-65
2023/05/09 03:02:20;;;;;;;11.68;7.00;;;22.50;45.70;;;;;;7578757;23;83346;-67
2023/05/09 03:05:21;;;;;;;8.95;6.47;;;22.50;45.50;;;;;;7580288;23;83136;-67
2023/05/09 03:08:21;;;;;;;9.98;6.13;;;22.50;45.60;;;;;;7602209;23;80963;-66
2023/05/09 03:11:22;;;;;;;10.07;6.90;;;22.50;45.70;;;;;;7578430;23;81622;-72
2023/05/09 03:14:22;;;;;;;12.63;6.72;;;22.60;45.90;;;;;;7578420;23;83181;-80
2023/05/09 03:17:23;;;;;;;9.00;6.65;;;22.50;45.70;;;;;;7607478;23;80747;-74
2023/05/09 03:20:24;;;;;;;8.52;6.15;;;22.50;46.00;;;;;;7579298;23;83202;-74
2023/05/09 03:23:24;;;;;;;11.15;7.28;;;22.50;45.80;;;;;;7606845;23;80609;-76
2023/05/09 03:26:26;;;;;;;9.25;6.25;;;22.50;46.30;;;;;;7577914;23;83153;-74
2023/05/09 03:29:27;;;;;;;12.52;6.68;;;22.50;45.50;;;;;;7579456;23;83634;-77
2023/05/09 03:32:28;;;;;;;10.48;6.63;;;22.50;45.70;;;;;;7578855;23;81398;-65
2023/05/09 03:35:28;;;;;;;11.00;7.00;;;22.50;45.50;;;;;;7604807;23;80361;-65
2023/05/09 03:38:29;;;;;;;9.75;7.25;;;22.50;45.60;;;;;;7579251;23;83391;-65
2023/05/09 03:41:30;;;;;;;10.35;6.88;;;22.50;45.50;;;;;;7573712;23;83493;-72
2023/05/09 03:44:31;;;;;;;8.88;6.13;;;22.50;45.70;;;;;;7604207;23;81095;-73
2023/05/09 03:47:32;;;;;;;9.50;7.05;;;22.50;45.50;;;;;;7576992;23;82822;-65
2023/05/09 03:50:32;;;;;;;13.38;7.72;;;22.50;45.60;;;;;;7605618;23;80639;-63
2023/05/09 03:53:33;;;;;;;22.45;8.10;;;22.50;45.60;;;;;;7577637;23;82996;-67
2023/05/09 03:56:34;;;;;;;14.10;7.30;;;22.50;45.70;;;;;;7602728;23;80679;-63
2023/05/09 03:59:35;;;;;;;11.65;7.20;;;22.50;45.60;;;;;;7604121;23;81412;-67
2023/05/09 04:02:36;;;;;;;10.30;6.72;;;22.50;45.80;;;;;;7604598;23;83119;-67
2023/05/09 04:05:37;;;;;;;11.63;7.03;;;22.50;45.90;;;;;;7578559;23;83206;-70
2023/05/09 04:08:40;;;;;;;10.75;6.78;;;22.50;45.80;;;;;;7576393;23;83532;-58
2023/05/09 04:11:41;;;;;;;11.90;6.95;;;22.50;45.90;;;;;;7577570;23;83365;-61
2023/05/09 04:14:45;;;;;;;9.43;6.15;;;22.50;46.10;;;;;;7574971;23;82805;-68
2023/05/09 04:17:46;;;;;;;12.38;6.82;;;22.50;46.30;;;;;;7576351;23;83040;-61
2023/05/09 04:20:46;;;;;;;10.75;6.43;;;22.50;46.30;;;;;;7577488;23;83144;-62
2023/05/09 04:23:48;;;;;;;10.60;6.95;;;22.50;46.80;;;;;;7577133;23;82752;-62
2023/05/09 04:26:51;;;;;;;16.00;8.15;;;22.50;46.50;;;;;;7603183;23;81293;-72
2023/05/09 04:29:55;;;;;;;11.57;6.97;;;22.50;46.50;;;;;;7577827;23;81457;-66
2023/05/09 04:32:56;;;;;;;12.02;8.07;;;22.50;46.40;;;;;;7578078;23;82092;-66
2023/05/09 04:35:57;;;;;;;10.60;6.80;;;22.50;46.70;;;;;;7605445;23;81127;-71
2023/05/09 04:38:58;;;;;;;16.70;7.72;;;22.50;46.50;;;;;;7578285;23;83190;-65
2023/05/09 04:42:01;;;;;;;13.15;7.15;;;22.50;46.60;;;;;;7578921;23;83233;-67
2023/05/09 04:45:02;;;;;;;10.70;6.38;;;22.50;46.80;;;;;;7601327;23;81427;-71
2023/05/09 04:48:03;;;;;;;11.02;6.57;;;22.50;47.00;;;;;;7603572;23;80636;-67
2023/05/09 04:51:03;;;;;;;10.98;7.20;;;22.50;47.00;;;;;;7572554;23;82976;-68
2023/05/09 04:54:05;;;;;;;11.10;6.40;;;22.50;47.10;;;;;;7574965;23;83145;-68
2023/05/09 04:57:09;;;;;;;17.33;8.27;;;22.50;46.10;;;;;;7570499;23;82371;-67
2023/05/09 05:00:10;;;;;;;18.02;9.13;;;22.10;43.70;;;;;;7570730;23;82002;-68
2023/05/09 05:03:11;;;;;;;17.70;9.90;;;21.80;43.40;;;;;;7573267;23;83635;-69
2023/05/09 05:06:12;;;;;;;14.68;9.98;;;21.60;43.40;;;;;;7573281;23;82216;-70
2023/05/09 05:09:15;;;;;;;17.10;9.70;;;21.30;43.40;;;;;;7569657;23;83919;-67
2023/05/09 05:12:15;;;;;;;15.45;10.10;;;21.20;43.40;;;;;;7601578;23;83397;-69
2023/05/09 05:15:18;;;;;;;16.20;10.48;;;21.00;43.50;;;;;;7572437;23;83138;-68
2023/05/09 05:18:20;;;;;;;16.08;9.82;;;20.80;43.70;;;;;;7546032;23;85928;-68
2023/05/09 05:21:21;;;;;;;15.73;9.57;;;20.70;43.70;;;;;;7601270;23;84463;-60
2023/05/09 05:24:22;;;;;;;17.00;10.48;;;20.60;43.80;;;;;;7601426;23;80096;-59
2023/05/09 05:27:23;;;;;;;16.15;9.90;;;20.60;43.80;;;;;;7569968;23;83290;-59
2023/05/09 05:30:24;;;;;;;16.65;9.98;;;20.50;43.80;;;;;;7575781;23;86129;-59
2023/05/09 05:33:25;;;;;;;19.77;10.38;;;20.40;43.80;;;;;;7600287;23;83051;-59
2023/05/09 05:36:26;;;;;;;16.02;9.73;;;20.40;44.10;;;;;;7574093;23;85649;-60
2023/05/09 05:39:26;;;;;;;17.20;10.57;;;20.40;44.20;;;;;;7577124;23;83770;-59
2023/05/09 05:42:27;;;;;;;28.90;11.15;;;20.40;44.20;;;;;;7572205;23;84316;-59
2023/05/09 05:45:29;;;;;;;17.42;9.48;;;20.40;44.30;;;;;;7601548;23;83288;-58
2023/05/09 05:48:31;;;;;;;16.98;10.52;;;20.30;44.30;;;;;;7578529;23;83748;-60
2023/05/09 05:51:32;;;;;;;16.08;9.75;;;20.40;44.30;;;;;;7564168;23;84384;-59
2023/05/09 05:54:33;;;;;;;19.70;10.10;;;20.40;44.40;;;;;;7572622;23;85908;-59
2023/05/09 05:57:36;;;;;;;14.82;9.25;;;20.30;44.40;;;;;;7570743;23;82970;-66
2023/05/09 06:00:38;;;;;;;15.38;9.27;;;20.40;44.50;;;;;;7577497;23;85246;-66
2023/05/09 06:03:40;;;;;;;16.27;9.27;;;20.40;44.60;;;;;;7577751;23;83370;-68
2023/05/09 06:06:41;;;;;;;15.60;9.50;;;20.40;44.50;;;;;;7578502;23;83167;-67
2023/05/09 06:09:41;;;;;;;22.10;9.15;;;20.50;44.70;;;;;;7604719;23;80076;-67
2023/05/09 06:12:43;;;;;;;12.52;7.97;;;20.50;44.60;;;;;;7578753;23;82896;-68
2023/05/09 06:15:44;;;;;;;15.80;8.43;;;20.40;44.50;;;;;;7604976;23;80753;-68
2023/05/09 06:18:45;;;;;;;13.40;8.32;;;20.40;44.60;;;;;;7604957;23;80790;-69
2023/05/09 06:21:45;;;;;;;15.50;7.90;;;20.40;44.70;;;;;;7605290;23;80257;-68
2023/05/09 06:24:46;;;;;;;12.50;7.78;;;20.40;44.80;;;;;;7604307;23;80473;-69
2023/05/09 06:27:46;;;;;;;14.23;8.32;;;20.40;44.80;;;;;;7578406;23;82400;-68
2023/05/09 06:30:47;;;;;;;12.80;7.93;;;20.50;44.70;;;;;;7605422;23;80301;-70
2023/05/09 06:33:47;;;;;;;9.80;7.13;;;20.50;44.90;;;;;;7605038;23;80268;-70
2023/05/09 06:36:48;;;;;;;11.93;7.00;;;20.60;44.80;;;;;;7605353;23;80195;-68
2023/05/09 06:39:49;;;;;;;11.00;6.53;;;20.60;44.80;;;;;;7605911;23;81164;-67
2023/05/09 06:42:50;;;;;;;11.93;6.78;;;20.40;44.90;;;;;;7606993;23;80331;-71
2023/05/09 06:45:51;;;;;;;11.40;6.30;;;20.50;45.00;;;;;;7606292;23;80507;-69
2023/05/09 06:48:51;;;;;;;8.55;5.22;;;20.50;45.00;;;;;;7606401;23;80394;-70
2023/05/09 06:51:52;;;;;;;18.30;6.50;;;20.60;44.90;;;;;;7606867;23;80750;-69
2023/05/09 06:54:53;;;;;;;10.97;5.90;;;20.60;44.70;;;;;;7606056;23;80554;-69
2023/05/09 06:57:53;;;;;;;7.70;5.38;;;20.60;44.70;;;;;;7606212;23;80705;-70
2023/05/09 07:00:54;;;;;;;10.15;6.82;;;20.60;44.60;;;;;;7606963;23;80211;-69
2023/05/09 07:03:54;;;;;;;11.98;6.38;;;20.50;44.60;;;;;;7606341;23;80307;-69
2023/05/09 07:06:55;;;;;;;10.52;6.15;;;20.50;44.50;;;;;;7606098;23;80316;-69
2023/05/09 07:09:55;;;;;;;9.90;6.00;;;20.60;44.70;;;;;;7605765;23;80464;-60
2023/05/09 07:12:56;;;;;;;9.82;5.57;;;20.60;44.50;;;;;;7606676;23;80124;-60
2023/05/09 07:15:56;;;;;;;9.70;5.82;;;20.40;44.70;;;;;;7606279;23;80135;-60
2023/05/09 07:18:57;;;;;;;10.77;6.53;;;20.50;44.80;;;;;;7607177;23;80694;-59
2023/05/09 07:21:57;;;;;;;10.75;5.28;;;20.30;44.80;;;;;;7606685;23;80085;-58
2023/05/09 07:24:58;;;;;;;13.73;5.50;;;20.20;45.00;;;;;;7607106;23;81405;-59
2023/05/09 07:27:58;;;;;;;10.60;5.30;;;20.00;44.70;;;;;;7607044;23;80374;-67
2023/05/09 07:30:59;;;;;;;8.23;5.60;;;19.90;44.80;;;;;;7606616;23;80927;-68
2023/05/09 07:34:00;;;;;;;7.68;4.95;;;19.40;45.20;;;;;;7606824;23;80710;-70
2023/05/09 07:37:00;;;;;;;15.25;5.65;;;19.20;45.50;;;;;;7606509;23;80303;-69
2023/05/09 07:40:02;;;;;;;11.07;5.40;;;19.40;45.50;;;;;;7604603;23;79980;-69
2023/05/09 07:43:02;;;;;;;8.50;5.32;;;19.50;45.20;;;;;;7606068;23;80962;-69
2023/05/09 07:46:03;;;;;;;10.15;4.72;;;19.70;45.10;;;;;;7605511;23;80421;-68
2023/05/09 07:49:04;;;;;;;8.55;4.07;;;19.90;44.70;;;;;;7603658;23;80309;-69
2023/05/09 07:52:04;;;;;;;7.43;4.22;;;19.70;44.40;;;;;;7604923;23;80244;-68
2023/05/09 07:55:05;;;;;;;10.65;4.35;;;19.60;44.60;;;;;;7604547;23;80223;-68
2023/05/09 07:58:06;;;;;;;6.97;4.05;;;19.70;43.90;;;;;;7604437;23;80604;-67
2023/05/09 08:01:06;;;;;;;7.68;4.40;;;19.70;44.30;;;;;;7604349;23;81225;-68
2023/05/09 08:04:07;;;;;;;8.13;4.20;;;19.90;44.00;;;;;;7605605;23;80072;-68
2023/05/09 08:07:08;;;;;;;11.45;4.72;;;19.90;43.50;;;;;;7604471;23;80719;-60
2023/05/09 08:10:08;;;;;;;6.95;3.70;;;20.00;43.70;;;;;;7602302;23;80359;-58
2023/05/09 08:13:09;;;;;;;6.60;3.45;;;20.00;43.70;;;;;;7604721;23;81469;-60
2023/05/09 08:16:10;;;;;;;7.00;3.72;;;20.10;43.60;;;;;;7603265;23;80293;-60
2023/05/09 08:19:10;;;;;;;9.23;3.97;;;20.10;43.40;;;;;;7604184;23;81459;-59
2023/05/09 08:22:11;;;;;;;9.52;3.88;;;20.10;43.40;;;;;;7604204;23;80040;-59
2023/05/09 08:25:13;;;;;;;7.15;3.88;;;20.10;43.10;;;;;;7604631;23;80823;-68
2023/05/09 08:28:14;;;;;;;8.05;3.80;;;20.00;43.30;;;;;;7604721;23;80400;-67
2023/05/09 08:31:15;;;;;;;10.25;3.72;;;20.10;43.30;;;;;;7603832;23;80129;-67
2023/05/09 08:34:15;;;;;;;8.98;3.90;;;20.40;43.30;;;;;;7603792;23;80834;-68
2023/05/09 08:37:16;;;;;;;9.30;3.72;;;20.20;43.10;;;;;;7604132;23;80086;-67
2023/05/09 08:40:17;;;;;;;5.32;3.00;;;20.20;43.40;;;;;;7603532;23;80387;-68
2023/05/09 08:43:18;;;;;;;8.13;3.35;;;19.90;42.90;;;;;;7604644;23;80258;-69
2023/05/09 08:46:18;;;;;;;5.60;3.45;;;20.10;43.10;;;;;;7604981;23;80899;-69
2023/05/09 08:49:19;;;;;;;5.80;3.45;;;20.20;42.60;;;;;;7605223;23;80305;-69
2023/05/09 08:52:19;;;;;;;5.88;3.90;;;20.00;43.10;;;;;;7604143;23;80506;-68
2023/05/09 08:55:20;;;;;;;10.32;3.80;;;20.00;42.60;;;;;;7604704;23;80658;-67
2023/05/09 08:58:21;;;;;;;8.25;3.50;;;19.70;42.40;;;;;;7602896;23;80387;-68
2023/05/09 09:01:21;;;;;;;5.85;3.60;;;19.70;43.10;;;;;;7604034;23;80273;-68
2023/05/09 09:04:22;;;;;;;8.30;3.17;;;19.90;42.60;;;;;;7604033;23;80217;-67
2023/05/09 09:07:22;;;;;;;9.35;2.85;;;20.20;42.70;;;;;;7604984;23;80042;-69
2023/05/09 09:10:25;;;;;;;4.35;3.17;;;20.40;42.30;;;;;;7605944;23;80670;-69
2023/05/09 09:13:25;;;;;;;6.70;3.15;;;20.60;42.00;;;;;;7604866;23;86461;-69
2023/05/09 09:16:26;;;;;;;7.80;3.58;;;20.70;41.80;;;;;;7604644;23;81042;-68
2023/05/09 09:19:26;;;;;;;4.20;2.97;;;20.90;41.40;;;;;;7604892;23;80274;-70
2023/05/09 09:22:27;;;;;;;6.75;3.50;;;20.90;41.20;;;;;;7602898;23;80793;-69
2023/05/09 09:25:27;;;;;;;4.63;3.15;;;20.80;41.00;;;;;;7605125;23;80269;-69
2023/05/09 09:28:28;;;;;;;6.15;3.40;;;20.80;41.70;;;;;;7577882;23;81742;-67
2023/05/09 09:31:29;;;;;;;7.88;3.33;;;20.80;41.60;;;;;;7605052;23;80057;-69
2023/05/09 09:34:29;;;;;;;5.90;3.03;;;20.80;41.50;;;;;;7604018;23;80249;-70
2023/05/09 09:37:30;;;;;;;8.98;3.53;;;20.80;41.10;;;;;;7603785;23;80342;-69
2023/05/09 09:40:30;;;;;;;6.50;3.20;;;20.50;40.70;;;;;;7602872;23;85925;-70
2023/05/09 09:43:31;;;;;;;3.83;2.20;;;20.30;40.60;;;;;;7605069;23;80513;-70
2023/05/09 09:46:31;;;;;;;4.38;3.25;;;20.60;41.80;;;;;;7602878;23;80501;-70
2023/05/09 09:49:32;;;;;;;4.28;2.80;;;20.80;41.40;;;;;;7604907;23;80661;-71
2023/05/09 09:52:32;;;;;;;4.38;2.83;;;20.70;40.90;;;;;;7604628;23;80090;-71
2023/05/09 09:55:33;;;;;;;9.38;2.95;;;20.80;41.00;;;;;;7605095;23;81863;-68
2023/05/09 09:58:33;;;;;;;5.20;3.00;;;21.00;41.00;;;;;;7602639;23;80384;-67
2023/05/09 10:01:34;;;;;;;5.32;3.08;;;21.10;40.50;;;;;;7604465;23;80281;-69
2023/05/09 10:04:34;;;;;;;6.10;3.00;;;21.10;40.90;;;;;;7603917;23;81484;-68
2023/05/09 10:07:35;;;;;;;6.32;3.17;;;21.00;40.80;;;;;;7603708;23;80448;-68
2023/05/09 10:10:35;;;;;;;8.00;3.33;;;20.90;40.70;;;;;;7604270;23;86683;-69
2023/05/09 10:13:37;;;;;;;6.28;3.08;;;20.80;41.10;;;;;;7604573;23;80365;-70
2023/05/09 10:16:37;;;;;;;6.80;2.90;;;21.10;41.40;;;;;;7603485;23;80456;-71
2023/05/09 10:19:38;;;;;;;4.95;2.80;;;21.20;41.00;;;;;;7603870;23;80385;-70
2023/05/09 10:22:38;;;;;;;4.50;3.10;;;21.10;40.90;;;;;;7603367;23;80411;-71
2023/05/09 10:25:39;;;;;;;4.38;2.95;;;21.30;40.90;;;;;;7603725;23;80356;-71
2023/05/09 10:28:40;;;;;;;4.65;3.08;;;21.30;41.00;;;;;;7604115;23;80432;-71
2023/05/09 10:31:40;;;;;;;3.35;2.45;;;21.20;41.00;;;;;;7603848;23;80880;-70
2023/05/09 10:34:41;;;;;;;5.70;2.85;;;21.20;40.60;;;;;;7604944;23;80419;-69
2023/05/09 10:37:41;;;;;;;4.13;2.80;;;21.10;41.00;;;;;;7604645;23;80224;-70
2023/05/09 10:40:42;;;;;;;5.07;3.20;;;21.30;41.00;;;;;;7603558;23;80489;-69
2023/05/09 10:43:43;;;;;;;2.83;2.20;;;21.40;41.00;;;;;;7603643;23;80850;-71
2023/05/09 10:46:43;;;;;;;6.95;3.35;;;21.60;40.90;;;;;;7604289;23;80720;-69
2023/05/09 10:49:44;;;;;;;6.53;2.70;;;21.60;40.80;;;;;;7603665;23;80529;-71
2023/05/09 10:52:44;;;;;;;5.40;3.00;;;21.60;40.20;;;;;;7602986;23;80452;-70
2023/05/09 10:55:45;;;;;;;6.07;2.47;;;21.60;40.30;;;;;;7604570;23;80777;-68
2023/05/09 10:58:45;;;;;;;3.58;2.70;;;21.60;40.70;;;;;;7603392;23;80738;-69
2023/05/09 11:01:46;;;;;;;4.80;2.80;;;21.70;40.30;;;;;;7604079;23;80559;-70
2023/05/09 11:04:46;;;;;;;6.00;2.78;;;21.30;40.10;;;;;;7603689;23;80926;-70
2023/05/09 11:07:47;;;;;;;7.10;3.58;;;21.20;40.30;;;;;;7603962;23;80740;-70
2023/05/09 11:10:48;;;;;;;3.72;2.42;;;21.40;40.60;;;;;;7603348;23;80121;-69
2023/05/09 11:13:48;;;;;;;4.13;2.65;;;21.30;39.70;;;;;;7604605;23;80648;-71
2023/05/09 11:16:49;;;;;;;4.63;2.83;;;21.30;40.00;;;;;;7602780;23;80198;-69
2023/05/09 11:19:49;;;;;;;5.50;2.83;;;21.30;40.20;;;;;;7604110;23;80369;-70
2023/05/09 11:22:50;;;;;;;5.70;2.63;;;21.30;40.00;;;;;;7592031;23;80834;-69
2023/05/09 11:25:50;;;;;;;8.27;3.15;;;21.40;40.30;;;;;;7606625;23;80715;-65
2023/05/09 11:28:51;;;;;;;6.10;2.63;;;21.50;39.70;;;;;;7606344;23;80178;-69
2023/05/09 11:31:51;;;;;;;4.15;2.47;;;21.40;39.00;;;;;;7606506;23;80086;-70
2023/05/09 11:34:52;;;;;;;5.10;3.00;;;21.40;39.80;;;;;;7605780;23;80355;-71
2023/05/09 11:37:54;;;;;;;4.03;2.40;;;21.30;39.60;;;;;;7605641;23;79933;-68
2023/05/09 11:40:54;;;;;;;7.30;3.03;;;21.50;40.50;;;;;;7605257;23;80914;-66
2023/05/09 11:43:59;;;;;;;3.33;2.60;;;21.60;40.80;;;;;;7605690;23;80438;-69
2023/05/09 11:46:59;;;;;;;8.13;2.58;;;21.60;41.40;;;;;;7604762;23;80557;-65
2023/05/09 11:50:00;;;;;;;5.65;3.47;;;21.00;41.60;;;;;;7605370;23;80344;-65
2023/05/09 11:53:00;;;;;;;4.25;2.40;;;20.90;43.60;;;;;;7606175;23;80353;-66
2023/05/09 11:56:01;;;;;;;6.43;2.83;;;21.10;44.00;;;;;;7606143;23;80818;-65
2023/05/09 11:59:01;;;;;;;4.47;2.55;;;21.20;42.90;;;;;;7606243;23;80425;-65
2023/05/09 12:02:02;;;;;;;5.93;2.75;;;21.30;41.80;;;;;;7606714;23;80310;-66
2023/05/09 12:05:03;;;;;;;8.45;3.05;;;21.50;41.70;;;;;;7606289;23;80280;-65
2023/05/09 12:08:04;;;;;;;4.55;2.67;;;21.50;40.70;;;;;;7606000;23;80874;-65
2023/05/09 12:11:04;;;;;;;2.47;2.13;;;21.60;40.30;;;;;;7606126;23;80256;-68
2023/05/09 12:14:05;;;;;;;4.97;2.50;;;21.60;40.30;;;;;;7607083;23;80646;-67
2023/05/09 12:17:05;;;;;;;4.20;2.75;;;21.80;40.30;;;;;;7604115;23;80129;-69
2023/05/09 12:20:06;;;;;;;4.55;2.30;;;21.80;40.00;;;;;;7602422;23;85381;-66
2023/05/09 12:23:06;;;;;;;3.65;2.20;;;21.90;40.20;;;;;;7602498;23;80239;-67
2023/05/09 12:26:07;;;;;;;6.78;2.10;;;22.00;39.90;;;;;;7602135;23;80209;-67
2023/05/09 12:29:07;;;;;;;2.80;1.98;;;22.10;39.30;;;;;;7600836;23;81407;-68
2023/05/09 12:32:08;;;;;;;3.08;1.92;;;22.10;39.40;;;;;;7574994;23;83155;-67
2023/05/09 12:35:09;;;;;;;4.78;2.35;;;22.20;39.40;;;;;;7603732;23;80298;-68
2023/05/09 12:38:09;;;;;;;4.55;2.17;;;22.30;39.30;;;;;;7604139;23;80370;-68
2023/05/09 12:41:10;;;;;;;3.20;1.90;;;22.30;39.20;;;;;;7603223;23;80515;-61
2023/05/09 12:44:11;;;;;;;4.82;2.10;;;22.20;38.80;;;;;;7605615;23;80616;-60
2023/05/09 12:47:12;;;;;;;5.93;2.50;;;22.40;39.10;;;;;;7604922;23;80359;-62
2023/05/09 12:50:12;;;;;;;3.78;2.38;;;22.30;38.80;;;;;;7597256;23;80416;-62
2023/05/09 12:53:13;;;;;;;3.65;2.33;;;22.30;39.40;;;;;;7604703;23;80785;-59
2023/05/09 12:56:14;;;;;;;3.78;2.38;;;22.30;39.00;;;;;;7607754;23;81460;-61
2023/05/09 12:59:14;;;;;;;5.47;2.30;;;22.30;38.30;;;;;;7608219;23;80321;-62
2023/05/09 13:12:15;;;;;;;6.25;2.63;;;22.30;38.60;;;;;;7605060;23;81805;-63
2023/05/09 13:15:15;;;;;;;5.50;2.00;;;22.20;38.30;;;;;;7607018;23;80936;-61
2023/05/09 13:18:16;;;;;;;3.75;1.98;;;22.20;38.40;;;;;;7598263;23;81047;-63
2023/05/09 13:21:16;;;;;;;6.75;2.22;;;22.10;38.40;;;;;;7605575;23;80500;-62
2023/05/09 13:24:17;;;;;;;2.75;2.00;;;22.20;38.20;;;;;;7605579;23;81154;-62
2023/05/09 13:27:17;;;;;;;3.50;2.20;;;22.30;38.10;;;;;;7579754;23;80913;-65
2023/05/09 13:30:18;;;;;;;3.47;2.30;;;22.40;38.10;;;;;;7606361;23;80871;-64
2023/05/09 13:33:19;;;;;;;3.50;1.85;;;22.60;38.50;;;;;;7602588;23;80332;-65
2023/05/09 13:36:19;;;;;;;3.65;2.10;;;22.70;38.70;;;;;;7607335;23;80225;-65
2023/05/09 13:39:20;;;;;;;6.43;2.20;;;22.80;38.90;;;;;;7605183;23;81604;-64
2023/05/09 13:42:20;;;;;;;5.72;2.42;;;22.80;39.00;;;;;;7607251;23;80757;-65
2023/05/09 13:45:22;;;;;;;4.57;1.73;;;22.80;38.70;;;;;;7607539;23;80895;-64
2023/05/09 13:48:22;;;;;;;3.60;2.60;;;22.90;38.70;;;;;;7605879;23;80353;-65
2023/05/09 13:51:23;;;;;;;6.18;2.25;;;22.90;38.30;;;;;;7605197;23;80686;-64
2023/05/09 13:54:23;;;;;;;5.13;3.72;;;22.90;38.20;;;;;;7605623;23;80674;-76
2023/05/09 13:57:24;;;;;;;7.53;4.47;;;22.90;38.30;;;;;;7605728;23;80165;-76
2023/05/09 14:00:25;;;;;;;10.98;5.75;;;22.90;38.40;;;;;;7605832;23;80356;-73
2023/05/09 14:03:26;;;;;;;21.75;10.48;;;22.90;38.60;;;;;;7603332;23;81322;-76
2023/05/09 14:06:27;;;;;;;19.92;11.05;;;22.90;38.90;;;;;;7601602;23;82627;-78
2023/05/09 14:09:28;;;;;;;22.63;13.68;;;22.90;39.10;;;;;;7602112;23;83091;-75
2023/05/09 14:12:28;;;;;;;24.08;12.45;;;23.00;39.60;;;;;;7600176;23;83951;-63
2023/05/09 14:15:29;;;;;;;20.13;12.18;;;22.90;39.40;;;;;;7600334;23;83941;-64
2023/05/09 14:18:30;;;;;;;18.05;10.27;;;23.00;39.20;;;;;;7589040;23;83471;-64
2023/05/09 14:21:30;;;;;;;21.58;9.95;;;22.90;39.20;;;;;;7585854;23;84143;-68
2023/05/09 14:24:32;;;;;;;18.63;9.68;;;22.90;39.50;;;;;;7598884;23;81777;-69
2023/05/09 14:27:35;;;;;;;11.43;7.15;;;22.90;39.70;;;;;;7600903;23;81270;-63
2023/05/09 14:30:36;;;;;;;10.93;5.88;;;22.90;39.30;;;;;;7601024;23;80234;-69
2023/05/09 14:33:36;;;;;;;9.23;4.60;;;23.00;38.50;;;;;;7593312;23;81487;-72
2023/05/09 14:36:37;;;;;;;11.10;4.50;;;22.90;37.80;;;;;;7574294;23;83595;-68
2023/05/09 14:39:37;;;;;;;6.18;3.92;;;22.90;38.10;;;;;;7600836;23;80844;-69
2023/05/09 14:42:38;;;;;;;6.32;4.13;;;22.90;38.30;;;;;;7599818;23;80363;-70
2023/05/09 14:45:39;;;;;;;7.05;3.47;;;23.00;38.30;;;;;;7573661;23;83976;-67
2023/05/09 14:48:39;;;;;;;4.95;3.30;;;23.00;38.00;;;;;;7598828;23;80650;-64
2023/05/09 14:51:40;;;;;;;5.03;2.78;;;23.00;38.00;;;;;;7601784;23;81759;-63
2023/05/09 14:54:40;;;;;;;6.50;2.92;;;22.90;37.60;;;;;;7595682;23;81261;-64
2023/05/09 14:57:41;;;;;;;6.50;3.20;;;22.90;38.20;;;;;;7597920;23;80580;-63
2023/05/09 15:00:42;;;;;;;8.25;2.40;;;22.90;38.50;;;;;;7599056;23;80927;-64
2023/05/09 15:03:42;;;;;;;6.22;2.50;;;22.90;38.60;;;;;;7596702;23;81144;-65
2023/05/09 15:06:43;;;;;;;5.97;2.78;;;22.90;38.40;;;;;;7592792;23;80313;-62
2023/05/09 15:09:43;;;;;;;7.28;2.70;;;22.90;38.70;;;;;;7599882;23;80697;-62
2023/05/09 15:12:44;;;;;;;7.78;2.67;;;22.90;38.40;;;;;;7601529;23;80513;-62
2023/05/09 15:15:44;;;;;;;5.15;2.05;;;22.90;38.20;;;;;;7599730;23;80732;-70
2023/05/09 15:18:45;;;;;;;15.98;2.63;;;22.90;37.70;;;;;;7601186;23;80684;-68
2023/05/09 15:21:45;;;;;;;2.70;1.85;;;22.90;37.50;;;;;;7603990;23;80845;-71
2023/05/09 15:24:46;;;;;;;6.35;2.15;;;22.80;37.30;;;;;;7605876;23;80326;-67
2023/05/09 15:27:49;;;;;;;6.80;2.35;;;22.90;37.30;;;;;;7602351;23;80259;-65
2023/05/09 15:30:49;;;;;;;3.70;2.55;;;22.80;37.10;;;;;;7600153;23;80241;-65
2023/05/09 15:33:50;;;;;;;4.43;1.75;;;22.80;36.90;;;;;;7597871;23;80794;-65
2023/05/09 15:36:50;;;;;;;3.15;2.08;;;22.70;36.70;;;;;;7598185;23;81984;-65
2023/05/09 15:39:51;;;;;;;3.78;2.00;;;22.80;36.60;;;;;;7598533;23;80656;-67
2023/05/09 15:42:51;;;;;;;4.72;2.22;;;22.70;36.30;;;;;;7599066;23;80126;-66
2023/05/09 15:45:52;;;;;;;2.78;2.00;;;22.70;36.30;;;;;;7601775;23;80568;-75